createdAt,value
2019-05-06T00:01:10.716Z,101596.09
2019-05-06T00:03:40.640Z,101594.31
2019-05-06T00:06:10.546Z,101593.09
2019-05-06T00:08:40.481Z,101589.89
2019-05-06T00:11:10.415Z,101584.62
2019-05-06T00:13:40.277Z,101585.84
2019-05-06T00:16:10.209Z,101582.75
2019-05-06T00:18:40.428Z,101584.53
2019-05-06T00:21:10.346Z,101587.16
2019-05-06T00:23:49.855Z,101595.91
2019-05-06T00:26:38.030Z,101592.44
2019-05-06T00:29:19.892Z,101589.52
2019-05-06T00:31:49.812Z,101587.44
2019-05-06T00:34:19.751Z,101589.78
2019-05-06T00:36:49.615Z,101592.51
2019-05-06T00:39:41.708Z,101599.66
2019-05-06T00:42:49.414Z,101599.75
2019-05-06T00:45:19.255Z,101593.84
2019-05-06T00:47:49.091Z,101594.97
2019-05-06T00:50:20.456Z,101601.34
2019-05-06T00:52:51.277Z,101603.81
2019-05-06T00:55:21.217Z,101609.62
2019-05-06T00:57:51.130Z,101606.87
2019-05-06T01:00:26.241Z,101605.81
2019-05-06T01:02:56.182Z,101595.94
2019-05-06T01:05:26.118Z,101596.41
2019-05-06T01:07:56.341Z,101593.69
2019-05-06T01:10:26.286Z,101602.80
2019-05-06T01:13:07.571Z,101600.17
2019-05-06T01:15:37.674Z,101600.17
2019-05-06T01:18:07.595Z,101602.98
2019-05-06T01:20:37.517Z,101603.19
2019-05-06T01:23:07.466Z,101605.06
2019-05-06T01:25:37.373Z,101605.23
2019-05-06T01:28:07.288Z,101604.39
2019-05-06T01:30:37.218Z,101606.72
2019-05-06T01:33:07.056Z,101604.27
2019-05-06T01:35:36.988Z,101596.63
2019-05-06T01:38:27.998Z,101601.42
2019-05-06T01:41:24.355Z,101601.25
2019-05-06T01:43:54.690Z,101603.24
2019-05-06T01:46:24.893Z,101603.63
2019-05-06T01:48:54.824Z,101598.74
2019-05-06T01:51:24.772Z,101604.73
2019-05-06T01:53:54.728Z,101607.28
2019-05-06T01:56:24.657Z,101606.34
2019-05-06T01:58:54.587Z,101607.10
2019-05-06T02:01:25.195Z,101606.72
2019-05-06T02:03:55.227Z,101609.36
2019-05-06T02:06:25.315Z,101609.27
2019-05-06T02:08:55.233Z,101611.91
2019-05-06T02:11:25.160Z,101611.52
2019-05-06T02:13:55.403Z,101608.89
2019-05-06T02:16:25.329Z,101606.17
2019-05-06T02:18:55.187Z,101604.85
2019-05-06T02:21:43.904Z,101606.17
2019-05-06T02:24:20.359Z,101604.85
2019-05-06T02:26:50.328Z,101606.93
2019-05-06T02:29:24.493Z,101610.80
2019-05-06T02:32:27.127Z,101609.94
2019-05-06T02:34:58.060Z,101609.94
2019-05-06T02:37:39.286Z,101609.39
2019-05-06T02:40:24.964Z,101610.15
2019-05-06T02:42:55.471Z,101611.94
2019-05-06T02:45:25.473Z,101612.40
2019-05-06T02:48:13.461Z,101612.40
2019-05-06T02:51:04.404Z,101615.41
2019-05-06T02:53:34.318Z,101611.47
2019-05-06T02:56:04.618Z,101610.53
2019-05-06T02:58:35.574Z,101604.80
2019-05-06T03:01:05.478Z,101604.30
2019-05-06T03:03:35.420Z,101607.22
2019-05-06T03:06:05.350Z,101606.76
2019-05-06T03:08:35.373Z,101603.11
2019-05-06T03:11:05.299Z,101604.80
2019-05-06T03:13:36.304Z,101613.33
2019-05-06T03:16:06.420Z,101604.13
2019-05-06T03:18:37.417Z,101605.34
2019-05-06T03:21:26.333Z,101602.72
2019-05-06T03:24:03.989Z,101598.30
2019-05-06T03:26:33.541Z,101597.45
2019-05-06T03:29:03.504Z,101596.70
2019-05-06T03:31:36.511Z,101589.83
2019-05-06T03:34:27.893Z,101587.02
2019-05-06T03:36:40.768Z,101592.46
2019-05-06T03:39:09.645Z,101588.39
2019-05-06T03:41:39.576Z,101589.23
2019-05-06T03:44:09.499Z,101589.41
2019-05-06T03:46:57.267Z,101586.11
2019-05-06T03:49:29.340Z,101592.01
2019-05-06T03:51:59.205Z,101590.98
2019-05-06T03:54:29.748Z,101599.52
2019-05-06T03:57:02.996Z,101597.98
2019-05-06T03:59:33.913Z,101603.25
2019-05-06T04:02:05.179Z,101605.79
2019-05-06T04:04:35.398Z,101601.84
2019-05-06T04:07:05.582Z,101607.10
2019-05-06T04:09:36.754Z,101606.17
2019-05-06T04:12:07.861Z,101613.98
2019-05-06T04:14:37.828Z,101609.19
2019-05-06T04:17:39.015Z,101613.13
2019-05-06T04:20:24.708Z,101608.89
2019-05-06T04:23:16.781Z,101608.97
2019-05-06T04:25:55.474Z,101605.32
2019-05-06T04:28:28.531Z,101608.72
2019-05-06T04:30:58.675Z,101607.73
2019-05-06T04:33:29.345Z,101610.19
2019-05-06T04:35:59.675Z,101612.23
2019-05-06T04:38:29.960Z,101618.81
2019-05-06T04:41:02.747Z,101619.30
2019-05-06T04:43:33.655Z,101615.08
2019-05-06T04:46:03.519Z,101617.37
2019-05-06T04:48:33.756Z,101616.27
2019-05-06T04:51:04.184Z,101622.64
2019-05-06T04:53:34.251Z,101618.91
2019-05-06T04:56:04.567Z,101623.41
2019-05-06T04:58:35.806Z,101626.03
2019-05-06T05:01:05.958Z,101622.08
2019-05-06T05:03:35.895Z,101625.47
2019-05-06T05:06:06.144Z,101628.19
2019-05-06T05:08:39.034Z,101618.30
2019-05-06T05:11:22.751Z,101617.20
2019-05-06T05:14:13.352Z,101619.45
2019-05-06T05:16:52.902Z,101619.66
2019-05-06T05:19:23.775Z,101623.35
2019-05-06T05:22:05.853Z,101623.27
2019-05-06T05:24:37.473Z,101624.86
2019-05-06T05:27:07.874Z,101623.50
2019-05-06T05:29:38.438Z,101629.08
2019-05-06T05:32:09.024Z,101626.58
2019-05-06T05:34:40.795Z,101636.80
2019-05-06T05:37:12.116Z,101634.63
2019-05-06T05:39:42.591Z,101639.67
2019-05-06T05:42:24.927Z,101639.45
2019-05-06T05:44:54.859Z,101641.55
2019-05-06T05:47:25.112Z,101648.38
2019-05-06T05:50:04.636Z,101642.96
2019-05-06T05:52:34.583Z,101639.98
2019-05-06T05:55:04.641Z,101646.38
2019-05-06T05:57:34.975Z,101640.41
2019-05-06T06:00:05.766Z,101639.95
2019-05-06T06:02:35.700Z,101641.39
2019-05-06T06:05:05.726Z,101643.00
2019-05-06T06:07:35.793Z,101637.14
2019-05-06T06:10:33.204Z,101638.76
2019-05-06T06:13:03.323Z,101633.42
2019-05-06T06:15:44.790Z,101637.31
2019-05-06T06:18:22.576Z,101641.05
2019-05-06T06:21:20.770Z,101636.84
2019-05-06T06:23:43.987Z,101633.95
2019-05-06T06:26:13.929Z,101628.22
2019-05-06T06:28:43.858Z,101629.18
2019-05-06T06:31:25.568Z,101641.58
2019-05-06T06:34:01.940Z,101648.08
2019-05-06T06:36:41.944Z,101647.78
2019-05-06T06:39:16.157Z,101644.42
2019-05-06T06:41:46.072Z,101646.67
2019-05-06T06:44:18.986Z,101644.97
2019-05-06T06:46:48.917Z,101649.67
2019-05-06T06:49:19.210Z,101638.50
2019-05-06T06:51:49.152Z,101638.05
2019-05-06T06:54:19.362Z,101642.80
2019-05-06T06:57:08.963Z,101636.79
2019-05-06T06:59:44.371Z,101641.81
2019-05-06T07:02:29.924Z,101641.47
2019-05-06T07:05:22.456Z,101636.30
2019-05-06T07:07:47.183Z,101634.42
2019-05-06T07:10:32.913Z,101637.63
2019-05-06T07:13:03.111Z,101637.45
2019-05-06T07:15:33.822Z,101641.23
2019-05-06T07:18:04.961Z,101639.52
2019-05-06T07:20:42.933Z,101649.97
2019-05-06T07:23:26.308Z,101640.48
2019-05-06T07:25:56.227Z,101635.02
2019-05-06T07:28:26.528Z,101641.05
2019-05-06T07:30:56.565Z,101639.53
2019-05-06T07:33:26.487Z,101643.32
2019-05-06T07:35:56.754Z,101648.01
2019-05-06T07:38:26.688Z,101652.52
2019-05-06T07:41:04.703Z,101656.48
2019-05-06T07:43:52.595Z,101663.63
2019-05-06T07:46:44.909Z,101662.40
2019-05-06T07:49:14.863Z,101662.66
2019-05-06T07:51:44.786Z,101660.59
2019-05-06T07:54:15.046Z,101662.09
2019-05-06T07:56:45.262Z,101666.77
2019-05-06T07:59:17.068Z,101663.38
2019-05-06T08:01:47.049Z,101659.63
2019-05-06T08:04:17.206Z,101659.63
2019-05-06T08:06:47.119Z,101657.88
2019-05-06T08:09:17.047Z,101658.87
2019-05-06T08:11:46.985Z,101657.76
2019-05-06T08:14:16.904Z,101662.55
2019-05-06T08:16:54.754Z,101657.00
2019-05-06T08:19:24.695Z,101662.99
2019-05-06T08:21:56.840Z,101655.82
2019-05-06T08:24:26.704Z,101656.38
2019-05-06T08:26:56.638Z,101651.03
2019-05-06T08:29:26.559Z,101646.17
2019-05-06T08:31:56.413Z,101641.94
2019-05-06T08:34:26.857Z,101640.73
2019-05-06T08:37:05.729Z,101638.83
2019-05-06T08:39:35.683Z,101636.14
2019-05-06T08:42:05.604Z,101642.54
2019-05-06T08:44:35.473Z,101637.30
2019-05-06T08:47:05.412Z,101646.05
2019-05-06T08:49:53.182Z,101643.31
2019-05-06T08:52:27.458Z,101652.73
2019-05-06T08:55:02.342Z,101649.44
2019-05-06T08:57:33.050Z,101648.95
2019-05-06T09:00:03.581Z,101643.22
2019-05-06T09:02:35.489Z,101647.27
2019-05-06T09:05:05.761Z,101642.66
2019-05-06T09:07:35.732Z,101635.52
2019-05-06T09:10:05.724Z,101640.41
2019-05-06T09:12:35.566Z,101633.08
2019-05-06T09:15:06.118Z,101637.00
2019-05-06T09:17:36.033Z,101630.33
2019-05-06T09:20:06.075Z,101621.30
2019-05-06T09:22:36.401Z,101626.84
2019-05-06T09:25:06.504Z,101616.60
2019-05-06T09:27:53.923Z,101620.53
2019-05-06T09:30:37.058Z,101621.86
2019-05-06T09:33:07.155Z,101617.06
2019-05-06T09:35:37.091Z,101617.81
2019-05-06T09:38:07.002Z,101625.16
2019-05-06T09:40:38.486Z,101635.41
2019-05-06T09:43:13.356Z,101629.58
2019-05-06T09:45:43.302Z,101626.48
2019-05-06T09:48:35.245Z,101626.00
2019-05-06T09:51:05.094Z,101627.22
2019-05-06T09:53:43.073Z,101621.76
2019-05-06T09:56:26.004Z,101620.82
2019-05-06T09:58:56.009Z,101621.27
2019-05-06T10:01:25.950Z,101621.99
2019-05-06T10:03:56.549Z,101617.84
2019-05-06T10:06:26.400Z,101608.72
2019-05-06T10:08:56.342Z,101609.27
2019-05-06T10:11:26.308Z,101613.04
2019-05-06T10:13:56.228Z,101608.98
2019-05-06T10:16:26.273Z,101606.87
2019-05-06T10:18:56.361Z,101606.02
2019-05-06T10:21:26.311Z,101605.73
2019-05-06T10:23:58.258Z,101601.95
2019-05-06T10:26:32.612Z,101598.33
2019-05-06T10:29:22.799Z,101597.36
2019-05-06T10:32:00.504Z,101599.84
2019-05-06T10:34:32.676Z,101600.32
2019-05-06T10:37:25.283Z,101597.39
2019-05-06T10:40:03.385Z,101597.86
2019-05-06T10:42:42.907Z,101604.11
2019-05-06T10:45:23.929Z,101599.37
2019-05-06T10:47:53.915Z,101597.31
2019-05-06T10:50:23.844Z,101598.70
2019-05-06T10:53:13.561Z,101597.05
2019-05-06T10:55:46.133Z,101592.73
2019-05-06T10:58:16.440Z,101588.41
2019-05-06T11:00:47.446Z,101581.63
2019-05-06T11:03:22.679Z,101582.70
2019-05-06T11:05:53.639Z,101573.95
2019-05-06T11:08:23.714Z,101571.08
2019-05-06T11:10:54.260Z,101566.93
2019-05-06T11:13:24.606Z,101565.61
2019-05-06T11:15:55.600Z,101568.05
2019-05-06T11:18:26.982Z,101570.20
2019-05-06T11:20:56.866Z,101565.17
2019-05-06T11:23:28.173Z,101566.48
2019-05-06T11:25:58.677Z,101567.19
2019-05-06T11:28:47.258Z,101573.13
2019-05-06T11:31:33.226Z,101577.11
2019-05-06T11:34:25.074Z,101566.03
2019-05-06T11:37:15.055Z,101568.44
2019-05-06T11:39:44.575Z,101566.08
2019-05-06T11:42:28.115Z,101568.33
2019-05-06T11:44:46.005Z,101561.83
2019-05-06T11:47:15.872Z,101580.58
2019-05-06T11:49:45.827Z,101570.59
2019-05-06T11:52:16.710Z,101564.55
2019-05-06T11:54:46.629Z,101561.95
2019-05-06T11:57:16.797Z,101565.42
2019-05-06T11:59:46.931Z,101557.08
2019-05-06T12:02:20.051Z,101565.64
2019-05-06T12:04:49.991Z,101583.47
2019-05-06T12:07:20.052Z,101563.20
2019-05-06T12:09:49.928Z,101567.73
2019-05-06T12:12:20.107Z,101564.38
2019-05-06T12:14:52.501Z,101562.78
2019-05-06T12:17:22.304Z,101576.84
2019-05-06T12:19:53.006Z,101571.17
2019-05-06T12:22:24.755Z,101567.86
2019-05-06T12:24:54.528Z,101566.59
2019-05-06T12:27:43.039Z,101565.47
2019-05-06T12:30:14.665Z,101567.59
2019-05-06T12:32:52.675Z,101572.02
2019-05-06T12:35:22.594Z,101578.09
2019-05-06T12:37:55.582Z,101575.87
2019-05-06T12:40:26.335Z,101572.49
2019-05-06T12:43:15.261Z,101573.71
2019-05-06T12:45:47.520Z,101571.94
2019-05-06T12:48:24.526Z,101570.67
2019-05-06T12:50:54.928Z,101569.59
2019-05-06T12:53:24.788Z,101568.55
2019-05-06T12:55:55.010Z,101575.34
2019-05-06T12:58:24.905Z,101571.77
2019-05-06T13:00:54.838Z,101572.14
2019-05-06T13:03:24.783Z,101566.29
2019-05-06T13:05:54.844Z,101567.59
2019-05-06T13:08:32.433Z,101568.44
2019-05-06T13:10:56.718Z,101563.06
2019-05-06T13:13:26.540Z,101557.41
2019-05-06T13:15:57.528Z,101565.06
2019-05-06T13:18:27.462Z,101551.09
2019-05-06T13:20:57.691Z,101544.81
2019-05-06T13:23:35.153Z,101550.84
2019-05-06T13:26:05.243Z,101544.23
2019-05-06T13:28:38.523Z,101536.62
2019-05-06T13:31:19.377Z,101544.78
2019-05-06T13:33:55.309Z,101535.74
2019-05-06T13:36:25.294Z,101541.97
2019-05-06T13:39:09.609Z,101541.87
2019-05-06T13:41:26.879Z,101537.16
2019-05-06T13:44:06.351Z,101538.58
2019-05-06T13:46:39.493Z,101535.80
2019-05-06T13:49:47.085Z,101537.26
2019-05-06T13:52:22.792Z,101528.55
2019-05-06T13:54:52.969Z,101522.03
2019-05-06T13:57:22.991Z,101513.27
2019-05-06T13:59:53.444Z,101514.82
2019-05-06T14:02:43.681Z,101516.30
2019-05-06T14:05:13.525Z,101507.19
2019-05-06T14:07:43.636Z,101514.87
2019-05-06T14:10:14.813Z,101508.32
2019-05-06T14:12:44.671Z,101509.59
2019-05-06T14:15:15.553Z,101498.05
2019-05-06T14:17:45.490Z,101490.94
2019-05-06T14:20:15.984Z,101489.27
2019-05-06T14:22:46.182Z,101489.77
2019-05-06T14:25:44.199Z,101484.82
2019-05-06T14:28:32.970Z,101489.16
2019-05-06T14:31:06.608Z,101497.67
2019-05-06T14:33:36.553Z,101490.95
2019-05-06T14:36:06.443Z,101495.54
2019-05-06T14:38:36.330Z,101482.41
2019-05-06T14:41:12.866Z,101478.93
2019-05-06T14:43:43.011Z,101481.45
2019-05-06T14:46:13.048Z,101474.14
2019-05-06T14:48:43.740Z,101479.08
2019-05-06T14:51:15.148Z,101469.94
2019-05-06T14:53:45.199Z,101479.22
2019-05-06T14:56:43.337Z,101464.26
2019-05-06T14:59:13.237Z,101466.91
2019-05-06T15:01:45.444Z,101471.84
2019-05-06T15:04:15.426Z,101465.13
2019-05-06T15:06:45.296Z,101455.81
2019-05-06T15:09:15.326Z,101461.95
2019-05-06T15:11:45.201Z,101462.21
2019-05-06T15:14:15.071Z,101453.76
2019-05-06T15:16:44.957Z,101457.00
2019-05-06T15:19:15.174Z,101457.84
2019-05-06T15:21:45.752Z,101454.84
2019-05-06T15:24:15.592Z,101455.54
2019-05-06T15:26:45.779Z,101455.39
2019-05-06T15:29:15.649Z,101459.82
2019-05-06T15:32:13.249Z,101473.16
2019-05-06T15:35:02.519Z,101453.89
2019-05-06T15:37:54.820Z,101459.03
2019-05-06T15:40:32.632Z,101460.10
2019-05-06T15:42:56.397Z,101453.38
2019-05-06T15:45:26.551Z,101449.55
2019-05-06T15:47:56.869Z,101457.86
2019-05-06T15:50:26.719Z,101462.52
2019-05-06T15:52:56.581Z,101474.31
2019-05-06T15:55:26.951Z,101482.73
2019-05-06T15:57:56.905Z,101496.27
2019-05-06T16:00:29.335Z,101500.77
2019-05-06T16:02:59.279Z,101501.72
2019-05-06T16:05:31.114Z,101509.75
2019-05-06T16:08:02.724Z,101515.23
2019-05-06T16:10:37.920Z,101519.26
2019-05-06T16:13:03.966Z,101508.53
2019-05-06T16:15:34.012Z,101506.09
2019-05-06T16:18:04.390Z,101498.79
2019-05-06T16:20:34.586Z,101503.90
2019-05-06T16:23:33.102Z,101495.47
2019-05-06T16:26:03.188Z,101496.24
2019-05-06T16:28:33.107Z,101496.20
2019-05-06T16:31:03.046Z,101493.00
2019-05-06T16:33:34.754Z,101498.08
2019-05-06T16:36:04.694Z,101497.13
2019-05-06T16:38:34.651Z,101501.56
2019-05-06T16:41:12.388Z,101497.97
2019-05-06T16:43:36.084Z,101502.41
2019-05-06T16:46:06.383Z,101501.35
2019-05-06T16:48:37.183Z,101496.20
2019-05-06T16:51:07.150Z,101503.66
2019-05-06T16:53:37.015Z,101503.17
2019-05-06T16:56:16.889Z,101504.86
2019-05-06T16:58:52.528Z,101500.91
2019-05-06T17:01:22.246Z,101497.31
2019-05-06T17:04:17.176Z,101502.97
2019-05-06T17:06:47.228Z,101498.05
2019-05-06T17:09:23.627Z,101499.74
2019-05-06T17:11:48.918Z,101501.91
2019-05-06T17:14:18.874Z,101495.20
2019-05-06T17:16:48.799Z,101503.23
2019-05-06T17:19:18.982Z,101497.58
2019-05-06T17:21:48.796Z,101502.38
2019-05-06T17:24:18.654Z,101501.44
2019-05-06T17:26:48.614Z,101501.54
2019-05-06T17:29:37.441Z,101508.98
2019-05-06T17:32:25.131Z,101505.02
2019-05-06T17:34:57.627Z,101504.18
2019-05-06T17:37:45.360Z,101496.94
2019-05-06T17:40:16.886Z,101499.11
2019-05-06T17:42:47.103Z,101496.94
2019-05-06T17:45:35.348Z,101497.89
2019-05-06T17:48:12.766Z,101499.93
2019-05-06T17:50:44.749Z,101499.77
2019-05-06T17:53:14.671Z,101506.47
2019-05-06T17:55:44.573Z,101503.46
2019-05-06T17:58:14.447Z,101499.03
2019-05-06T18:00:44.730Z,101495.17
2019-05-06T18:03:14.675Z,101499.61
2019-05-06T18:05:44.467Z,101500.66
2019-05-06T18:08:14.282Z,101500.90
2019-05-06T18:10:44.251Z,101500.05
2019-05-06T18:13:14.203Z,101494.50
2019-05-06T18:15:44.078Z,101489.80
2019-05-06T18:18:13.940Z,101492.07
2019-05-06T18:20:43.812Z,101490.86
2019-05-06T18:23:13.772Z,101490.59
2019-05-06T18:25:44.014Z,101487.95
2019-05-06T18:28:14.226Z,101483.25
2019-05-06T18:30:44.241Z,101478.91
2019-05-06T18:33:14.117Z,101484.56
2019-05-06T18:35:44.069Z,101485.31
2019-05-06T18:38:13.966Z,101484.83
2019-05-06T18:40:43.819Z,101481.72
2019-05-06T18:43:13.933Z,101480.03
2019-05-06T18:45:43.874Z,101480.23
2019-05-06T18:48:14.815Z,101478.55
2019-05-06T18:50:44.744Z,101475.50
2019-05-06T18:53:16.044Z,101475.23
2019-05-06T18:55:45.981Z,101471.37
2019-05-06T18:58:15.915Z,101476.39
2019-05-06T19:00:46.134Z,101472.91
2019-05-06T19:03:15.995Z,101481.30
2019-05-06T19:05:46.441Z,101475.07
2019-05-06T19:08:26.977Z,101478.08
2019-05-06T19:10:58.341Z,101475.44
2019-05-06T19:13:28.384Z,101480.79
2019-05-06T19:15:58.344Z,101483.63
2019-05-06T19:18:28.206Z,101488.15
2019-05-06T19:20:58.133Z,101492.70
2019-05-06T19:23:28.076Z,101496.06
2019-05-06T19:25:58.204Z,101500.02
2019-05-06T19:28:28.171Z,101507.06
2019-05-06T19:30:57.997Z,101497.94
2019-05-06T19:33:27.942Z,101507.95
2019-05-06T19:35:57.893Z,101514.36
2019-05-06T19:38:27.855Z,101508.70
2019-05-06T19:40:57.886Z,101509.08
2019-05-06T19:43:27.759Z,101510.39
2019-05-06T19:45:57.696Z,101507.59
2019-05-06T19:48:27.880Z,101506.34
2019-05-06T19:50:58.003Z,101506.98
2019-05-06T19:53:27.932Z,101509.53
2019-05-06T19:55:57.725Z,101502.66
2019-05-06T19:58:27.565Z,101508.48
2019-05-06T20:00:57.524Z,101511.73
2019-05-06T20:03:27.674Z,101508.33
2019-05-06T20:06:32.401Z,101512.28
2019-05-06T20:09:22.238Z,101508.23
2019-05-06T20:11:54.493Z,101503.60
2019-05-06T20:14:24.270Z,101507.09
2019-05-06T20:16:54.495Z,101504.25
2019-05-06T20:19:30.748Z,101512.36
2019-05-06T20:21:56.133Z,101509.75
2019-05-06T20:24:26.076Z,101516.09
2019-05-06T20:26:56.189Z,101503.80
2019-05-06T20:29:26.033Z,101506.71
2019-05-06T20:31:55.902Z,101500.57
2019-05-06T20:34:26.045Z,101504.33
2019-05-06T20:36:55.999Z,101506.36
2019-05-06T20:39:25.940Z,101508.53
2019-05-06T20:41:55.804Z,101512.34
2019-05-06T20:44:25.672Z,101511.61
2019-05-06T20:46:55.524Z,101515.71
2019-05-06T20:49:25.333Z,101507.87
2019-05-06T20:51:55.213Z,101510.89
2019-05-06T20:54:25.014Z,101515.50
2019-05-06T20:56:55.065Z,101512.30
2019-05-06T20:59:24.861Z,101509.00
2019-05-06T21:01:55.429Z,101515.03
2019-05-06T21:04:25.369Z,101514.87
2019-05-06T21:06:55.642Z,101509.40
2019-05-06T21:09:25.635Z,101513.08
2019-05-06T21:11:55.779Z,101511.28
2019-05-06T21:14:26.021Z,101505.07
2019-05-06T21:16:55.868Z,101505.31
2019-05-06T21:19:25.834Z,101504.64
2019-05-06T21:21:55.777Z,101505.39
2019-05-06T21:24:26.983Z,101505.42
2019-05-06T21:26:57.345Z,101507.87
2019-05-06T21:29:27.298Z,101503.73
2019-05-06T21:31:57.160Z,101505.15
2019-05-06T21:34:27.081Z,101503.73
2019-05-06T21:36:57.032Z,101500.16
2019-05-06T21:39:27.046Z,101501.09
2019-05-06T21:41:56.874Z,101499.21
2019-05-06T21:44:27.134Z,101501.75
2019-05-06T21:46:57.408Z,101503.28
2019-05-06T21:49:27.874Z,101501.48
2019-05-06T21:51:57.847Z,101498.58
2019-05-06T21:54:27.626Z,101499.89
2019-05-06T21:56:57.571Z,101496.78
2019-05-06T21:59:28.430Z,101497.80
2019-05-06T22:01:58.398Z,101492.99
2019-05-06T22:04:28.349Z,101496.00
2019-05-06T22:06:58.203Z,101495.13
2019-05-06T22:09:28.418Z,101493.16
2019-05-06T22:11:58.639Z,101494.18
2019-05-06T22:14:28.587Z,101495.27
2019-05-06T22:16:58.537Z,101490.75
2019-05-06T22:19:28.474Z,101488.48
2019-05-06T22:22:03.569Z,101488.29
2019-05-06T22:24:43.028Z,101488.66
2019-05-06T22:27:14.224Z,101485.09
2019-05-06T22:29:44.100Z,101475.95
2019-05-06T22:32:14.926Z,101483.77
2019-05-06T22:34:45.034Z,101483.39
2019-05-06T22:37:14.991Z,101477.65
2019-05-06T22:39:44.957Z,101483.77
2019-05-06T22:42:15.534Z,101479.81
2019-05-06T22:44:45.399Z,101483.77
2019-05-06T22:47:15.199Z,101488.20
2019-05-06T22:49:45.063Z,101480.66
2019-05-06T22:52:14.944Z,101482.64
2019-05-06T22:54:44.831Z,101481.05
2019-05-06T22:57:14.703Z,101476.16
2019-05-06T22:59:45.554Z,101475.68
2019-05-06T23:02:37.478Z,101476.63
2019-05-06T23:05:08.871Z,101477.94
2019-05-06T23:07:38.807Z,101477.66
2019-05-06T23:10:09.475Z,101477.42
2019-05-06T23:12:39.406Z,101477.89
2019-05-06T23:15:11.994Z,101481.75
2019-05-06T23:17:42.145Z,101478.98
2019-05-06T23:20:12.274Z,101479.45
2019-05-06T23:22:42.379Z,101482.47
2019-05-06T23:25:12.639Z,101483.78
2019-05-06T23:27:44.212Z,101475.50
2019-05-06T23:30:14.352Z,101477.89
2019-05-06T23:32:44.252Z,101477.34
2019-05-06T23:35:14.455Z,101478.75
2019-05-06T23:38:20.188Z,101478.42
2019-05-06T23:41:26.185Z,101474.00
2019-05-06T23:44:45.443Z,101472.77
2019-05-06T23:47:41.718Z,101467.87
2019-05-06T23:50:47.766Z,101463.93
2019-05-06T23:53:53.694Z,101471.70
2019-05-06T23:56:44.246Z,101468.59
2019-05-06T23:59:15.594Z,101465.34
